Time;durP1;ratioP1;P1;durP2;ratioP2;P2;SDS_P1;SDS_P2;PMS_P1;PMS_P2;Temp;Humidity;BMP_temperature;BMP_pressure;BME280_temperature;BME280_humidity;BME280_pressure;Samples;Min_cycle;Max_cycle;Signal;HPM_P1;HPM_P2
2021/06/07 00:01:05;;;;;;;1.53;0.70;;;13.90;99.90;;;;;;5019009;28;20241;-92
2021/06/07 00:03:39;;;;;;;1.17;0.60;;;14.30;99.90;;;;;;5021390;28;20218;-92
2021/06/07 00:06:09;;;;;;;0.73;0.40;;;14.50;99.90;;;;;;5032757;28;20214;-93
2021/06/07 00:08:40;;;;;;;1.23;0.50;;;14.20;99.90;;;;;;5030800;28;20190;-93
2021/06/07 00:11:11;;;;;;;0.33;0.30;;;14.00;99.90;;;;;;5035148;28;20211;-93
2021/06/07 00:13:44;;;;;;;0.47;0.47;;;13.40;99.90;;;;;;5032723;28;20256;-93
2021/06/07 00:16:15;;;;;;;0.53;0.40;;;13.50;99.90;;;;;;5019957;28;20320;-93
2021/06/07 00:18:49;;;;;;;0.77;0.47;;;13.40;99.90;;;;;;5019901;28;20248;-94
2021/06/07 00:21:22;;;;;;;0.83;0.50;;;13.10;99.90;;;;;;5017160;28;20761;-93
2021/06/07 00:23:54;;;;;;;0.77;0.50;;;12.90;99.90;;;;;;5018596;28;20292;-93
2021/06/07 00:26:25;;;;;;;1.13;0.50;;;13.00;99.90;;;;;;5018514;28;20233;-93
2021/06/07 00:28:56;;;;;;;0.53;0.40;;;13.20;99.90;;;;;;5017399;28;20269;-93
2021/06/07 00:31:26;;;;;;;0.60;0.40;;;13.20;99.90;;;;;;5016734;28;20666;-94
2021/06/07 00:34:00;;;;;;;1.10;0.43;;;13.10;99.90;;;;;;5015991;28;20229;-87
2021/06/07 00:36:31;;;;;;;0.43;0.33;;;13.20;99.90;;;;;;5027079;28;20628;-93
2021/06/07 00:39:02;;;;;;;0.40;0.37;;;13.40;99.90;;;;;;5037666;28;20233;-94
2021/06/07 00:41:33;;;;;;;1.20;0.40;;;13.30;99.90;;;;;;5036506;28;20231;-94
2021/06/07 00:44:10;;;;;;;1.17;0.90;;;13.30;99.90;;;;;;5038728;28;20236;-94
2021/06/07 00:46:43;;;;;;;0.40;0.30;;;13.50;99.90;;;;;;5039747;28;20228;-94
2021/06/07 00:49:17;;;;;;;1.10;0.37;;;13.50;99.90;;;;;;5023710;28;20273;-94
2021/06/07 00:51:49;;;;;;;0.83;0.50;;;13.30;99.90;;;;;;5018625;28;20232;-96
2021/06/07 00:54:20;;;;;;;0.73;0.40;;;13.40;99.90;;;;;;5018746;28;20655;-94
2021/06/07 00:56:51;;;;;;;0.30;0.30;;;13.10;99.90;;;;;;5016577;28;20308;-95
2021/06/07 00:59:22;;;;;;;0.40;0.40;;;12.80;99.90;;;;;;5018773;28;20194;-94
2021/06/07 01:01:52;;;;;;;0.50;0.40;;;13.00;99.90;;;;;;5017832;28;20295;-94
2021/06/07 01:04:29;;;;;;;0.80;0.43;;;13.00;99.90;;;;;;5013195;28;20226;-95
2021/06/07 01:07:00;;;;;;;0.87;0.50;;;12.90;99.90;;;;;;5011659;28;20296;-95
2021/06/07 01:09:31;;;;;;;1.77;0.60;;;13.00;99.90;;;;;;5026537;28;20193;-96
2021/06/07 01:12:03;;;;;;;1.03;0.50;;;12.90;99.90;;;;;;5031510;28;20217;-96
2021/06/07 01:14:38;;;;;;;0.63;0.50;;;12.70;99.90;;;;;;5022551;28;20303;-96
2021/06/07 01:17:11;;;;;;;1.30;0.67;;;12.70;99.90;;;;;;5012368;28;20217;-96
2021/06/07 01:27:45;;;;;;;1.90;0.80;;;12.50;99.90;;;;;;5573502;23;10002318;-93
2021/06/07 01:30:19;;;;;;;2.67;1.10;;;12.30;99.90;;;;;;4997304;28;20250;-96
2021/06/07 01:38:17;;;;;;;7.23;1.67;;;12.30;99.90;;;;;;5371798;23;20249;-97
2021/06/07 01:46:06;;;;;;;9.10;1.73;;;12.10;99.90;;;;;;5019994;28;20821;-96
2021/06/07 01:48:51;;;;;;;7.90;1.50;;;12.00;99.90;;;;;;5039059;28;20219;-96
2021/06/07 01:51:34;;;;;;;8.73;1.93;;;11.70;99.90;;;;;;5032207;28;20285;-96
2021/06/07 01:54:18;;;;;;;9.13;1.40;;;11.50;99.90;;;;;;5026601;28;20245;-96
2021/06/07 01:56:51;;;;;;;4.03;1.00;;;11.20;99.90;;;;;;5025701;28;20198;-96
2021/06/07 01:59:26;;;;;;;2.13;0.80;;;10.70;99.90;;;;;;5039434;28;20224;-96
2021/06/07 02:02:02;;;;;;;0.83;0.53;;;10.60;99.90;;;;;;5040066;28;20209;-96
2021/06/07 02:04:44;;;;;;;5.13;0.63;;;10.40;99.90;;;;;;5032317;28;20244;-96
2021/06/07 02:07:19;;;;;;;2.70;0.80;;;10.00;99.90;;;;;;5030954;28;20209;-95
2021/06/07 02:09:52;;;;;;;8.77;1.47;;;9.90;99.90;;;;;;5026575;28;20209;-96
2021/06/07 02:12:23;;;;;;;22.90;1.87;;;9.90;99.90;;;;;;5018233;28;20247;-95
2021/06/07 02:14:54;;;;;;;3.43;0.90;;;9.90;99.90;;;;;;5016797;28;20248;-95
2021/06/07 02:17:28;;;;;;;1.87;0.60;;;9.80;99.90;;;;;;5031808;28;20734;-96
2021/06/07 02:19:59;;;;;;;1.03;0.50;;;9.90;99.90;;;;;;5026287;28;20358;-96
2021/06/07 02:22:41;;;;;;;3.67;0.50;;;9.90;99.90;;;;;;5028820;28;20207;-96
2021/06/07 02:25:14;;;;;;;1.33;0.50;;;10.00;99.90;;;;;;5030453;28;20221;-96
2021/06/07 02:27:46;;;;;;;0.80;0.47;;;10.10;99.90;;;;;;5042389;28;20619;-95
2021/06/07 02:30:19;;;;;;;3.43;0.60;;;10.70;99.90;;;;;;5029012;28;20208;-95
2021/06/07 02:32:52;;;;;;;1.43;0.50;;;11.50;99.90;;;;;;5038610;28;20648;-95
2021/06/07 02:35:24;;;;;;;3.40;0.60;;;11.80;99.90;;;;;;5038886;28;20213;-96
2021/06/07 02:37:57;;;;;;;0.60;0.53;;;11.60;99.90;;;;;;5016483;28;20221;-95
2021/06/07 02:40:30;;;;;;;3.27;0.60;;;11.20;99.90;;;;;;5033194;28;20202;-93
2021/06/07 02:43:01;;;;;;;5.33;0.97;;;11.20;99.90;;;;;;5035644;28;20200;-95
2021/06/07 02:45:35;;;;;;;1.17;0.60;;;11.30;99.90;;;;;;5035027;28;20611;-93
2021/06/07 02:48:11;;;;;;;1.40;0.70;;;11.20;99.90;;;;;;5041178;28;20211;-92
2021/06/07 02:50:45;;;;;;;2.33;0.90;;;11.10;99.90;;;;;;5018256;28;20232;-93
2021/06/07 02:53:17;;;;;;;1.83;0.70;;;10.90;99.90;;;;;;5020654;28;20236;-91
2021/06/07 02:55:50;;;;;;;2.70;0.50;;;10.90;99.90;;;;;;5020156;28;20232;-91
2021/06/07 03:01:21;;;;;;;1.93;0.60;;;10.80;99.90;;;;;;5016206;28;20209;-92
2021/06/07 03:03:53;;;;;;;1.40;0.70;;;10.70;99.90;;;;;;5015734;28;20308;-91
2021/06/07 03:06:24;;;;;;;2.80;0.90;;;10.60;99.90;;;;;;5034433;28;20209;-91
2021/06/07 03:08:56;;;;;;;3.30;0.90;;;10.40;99.90;;;;;;5019016;28;20201;-91
2021/06/07 03:11:26;;;;;;;0.90;0.60;;;10.30;99.90;;;;;;5023988;28;20577;-91
2021/06/07 03:13:57;;;;;;;2.30;1.13;;;10.30;99.90;;;;;;5010726;28;20265;-91
2021/06/07 03:16:28;;;;;;;1.50;0.73;;;10.20;99.90;;;;;;5014152;28;20262;-91
2021/06/07 03:19:00;;;;;;;6.10;0.80;;;10.30;99.90;;;;;;5020440;28;20269;-89
2021/06/07 03:21:31;;;;;;;1.70;0.73;;;10.20;99.90;;;;;;5018095;28;20658;-91
2021/06/07 03:24:01;;;;;;;2.57;0.90;;;10.10;99.90;;;;;;5020278;28;20213;-91
2021/06/07 03:26:32;;;;;;;5.67;1.00;;;10.10;99.90;;;;;;5018841;28;20210;-87
2021/06/07 03:29:03;;;;;;;1.73;0.80;;;10.00;99.90;;;;;;5018582;28;20263;-90
2021/06/07 03:31:33;;;;;;;1.80;0.83;;;10.00;99.90;;;;;;5018000;28;20225;-90
2021/06/07 03:34:05;;;;;;;1.20;0.60;;;10.00;99.90;;;;;;5018563;28;20676;-90
2021/06/07 03:36:36;;;;;;;1.90;0.93;;;10.00;99.90;;;;;;5032134;28;20231;-88
2021/06/07 03:39:09;;;;;;;1.50;0.80;;;10.00;99.90;;;;;;5037867;28;20212;-90
2021/06/07 03:41:41;;;;;;;1.87;0.90;;;9.90;99.90;;;;;;5035967;28;20255;-90
2021/06/07 03:44:11;;;;;;;3.33;0.97;;;9.90;99.90;;;;;;5037465;28;20300;-90
2021/06/07 03:46:42;;;;;;;1.67;0.90;;;9.90;99.90;;;;;;5026893;28;20300;-90
2021/06/07 03:49:17;;;;;;;2.00;1.13;;;9.90;99.90;;;;;;5020723;28;20240;-90
2021/06/07 03:51:50;;;;;;;2.17;1.00;;;9.90;99.90;;;;;;5021668;28;20224;-90
2021/06/07 03:54:20;;;;;;;2.23;0.70;;;9.90;99.90;;;;;;5029830;28;20286;-90
2021/06/07 03:56:51;;;;;;;2.50;1.03;;;9.90;99.90;;;;;;5040316;28;20320;-90
2021/06/07 03:59:21;;;;;;;1.90;0.90;;;9.90;99.90;;;;;;5043102;28;20679;-90
2021/06/07 04:01:52;;;;;;;1.40;0.83;;;9.90;99.90;;;;;;5041006;28;20259;-90
2021/06/07 04:04:24;;;;;;;1.07;0.80;;;10.00;99.90;;;;;;5022064;28;20217;-90
2021/06/07 04:06:55;;;;;;;1.77;1.10;;;10.00;99.90;;;;;;5022962;28;20265;-90
2021/06/07 04:09:28;;;;;;;4.23;1.10;;;10.10;99.90;;;;;;5031867;28;20218;-91
2021/06/07 04:12:00;;;;;;;3.10;1.27;;;10.10;99.90;;;;;;5031507;28;20240;-91
2021/06/07 04:14:31;;;;;;;4.10;1.43;;;10.20;99.90;;;;;;5028875;28;20233;-91
2021/06/07 04:17:01;;;;;;;3.70;1.00;;;10.20;99.90;;;;;;5023992;28;20217;-91
2021/06/07 04:19:34;;;;;;;3.23;0.90;;;10.10;99.90;;;;;;5026626;28;20218;-91
2021/06/07 04:22:05;;;;;;;1.13;0.70;;;10.10;99.90;;;;;;5025954;28;20229;-91
2021/06/07 04:24:36;;;;;;;2.93;0.80;;;10.20;99.90;;;;;;5034269;28;20247;-91
2021/06/07 04:27:09;;;;;;;2.13;0.83;;;10.10;99.90;;;;;;5038561;28;20289;-90
2021/06/07 04:29:39;;;;;;;1.60;0.87;;;10.10;99.90;;;;;;5038639;28;20204;-94
2021/06/07 04:32:11;;;;;;;2.67;0.80;;;10.20;99.90;;;;;;5036974;28;20201;-91
2021/06/07 04:34:43;;;;;;;2.57;0.93;;;10.20;99.90;;;;;;5038660;28;20221;-91
2021/06/07 04:37:14;;;;;;;1.67;0.80;;;10.20;99.90;;;;;;5038248;28;20240;-90
2021/06/07 04:39:44;;;;;;;1.57;0.80;;;10.20;99.90;;;;;;5048569;28;20677;-92
2021/06/07 04:42:15;;;;;;;1.40;0.77;;;10.20;99.90;;;;;;5042173;28;20698;-91
2021/06/07 04:44:45;;;;;;;1.27;0.70;;;10.20;99.90;;;;;;5058271;28;20208;-91
2021/06/07 04:47:16;;;;;;;1.40;0.70;;;10.10;99.90;;;;;;5051343;28;20209;-90
2021/06/07 04:49:49;;;;;;;0.63;0.63;;;10.20;99.90;;;;;;5031364;28;20205;-91
2021/06/07 04:52:25;;;;;;;1.07;0.57;;;10.20;99.90;;;;;;5021386;28;20742;-91
2021/06/07 04:54:56;;;;;;;0.50;0.50;;;10.30;99.90;;;;;;5019360;28;20307;-91
2021/06/07 04:57:26;;;;;;;1.00;0.50;;;10.30;99.90;;;;;;5017558;28;20228;-91
2021/06/07 04:59:56;;;;;;;1.60;0.40;;;10.30;99.90;;;;;;5016478;28;20292;-91
2021/06/07 05:02:26;;;;;;;0.80;0.73;;;10.30;99.90;;;;;;5017968;28;20225;-91
2021/06/07 05:05:00;;;;;;;5.17;1.30;;;10.30;99.90;;;;;;5024985;28;20239;-91
2021/06/07 05:07:31;;;;;;;15.47;1.83;;;10.30;99.90;;;;;;5039956;28;20239;-91
2021/06/07 05:10:02;;;;;;;1.37;0.90;;;10.30;99.90;;;;;;5038495;28;20228;-92
2021/06/07 05:12:34;;;;;;;2.70;0.80;;;10.30;99.90;;;;;;5038019;28;20292;-92
2021/06/07 05:15:06;;;;;;;3.33;1.03;;;10.00;99.90;;;;;;5020223;28;20234;-91
2021/06/07 05:17:38;;;;;;;6.07;1.37;;;9.90;99.90;;;;;;5018521;28;20202;-92
2021/06/07 05:20:14;;;;;;;3.13;0.87;;;9.80;99.90;;;;;;5017436;28;20296;-92
2021/06/07 05:22:44;;;;;;;2.67;0.90;;;9.70;99.90;;;;;;5022457;28;20236;-92
2021/06/07 05:25:16;;;;;;;6.70;0.83;;;9.60;99.90;;;;;;5034873;28;20291;-92
2021/06/07 05:27:48;;;;;;;6.30;1.40;;;9.60;99.90;;;;;;5019576;28;20244;-91
2021/06/07 05:30:21;;;;;;;6.37;1.10;;;9.50;99.90;;;;;;5017791;28;20248;-91
2021/06/07 05:32:53;;;;;;;3.97;1.27;;;9.50;99.90;;;;;;5016304;28;20217;-92
2021/06/07 05:35:30;;;;;;;2.50;1.00;;;9.40;99.90;;;;;;5015865;28;20240;-90
2021/06/07 05:38:01;;;;;;;2.13;0.87;;;9.30;99.90;;;;;;5015484;28;20722;-91
2021/06/07 05:40:31;;;;;;;1.47;0.60;;;9.20;99.90;;;;;;5023280;28;20210;-91
2021/06/07 05:43:03;;;;;;;3.07;0.70;;;9.20;99.90;;;;;;5035237;28;20256;-91
2021/06/07 05:45:34;;;;;;;3.03;0.60;;;9.10;99.90;;;;;;5034815;28;20216;-91
2021/06/07 05:48:05;;;;;;;1.63;0.60;;;9.00;99.90;;;;;;5032729;28;20206;-91
2021/06/07 05:50:39;;;;;;;3.27;0.97;;;9.10;99.90;;;;;;5026469;28;20224;-91
2021/06/07 05:53:11;;;;;;;2.17;1.00;;;9.10;99.90;;;;;;5015791;28;20263;-91
2021/06/07 05:55:44;;;;;;;3.60;0.90;;;9.20;99.90;;;;;;5015878;28;20323;-91
2021/06/07 05:58:19;;;;;;;4.07;1.27;;;9.20;99.90;;;;;;5023745;28;20229;-91
2021/06/07 06:00:51;;;;;;;3.70;0.80;;;9.30;99.90;;;;;;5030769;28;20555;-91
2021/06/07 06:03:23;;;;;;;3.90;0.80;;;9.20;99.90;;;;;;5015313;28;20220;-91
2021/06/07 06:05:56;;;;;;;3.90;1.17;;;9.40;99.90;;;;;;5017236;28;20634;-90
2021/06/07 06:08:26;;;;;;;1.13;0.60;;;9.40;99.90;;;;;;5035641;28;20309;-91
2021/06/07 06:10:57;;;;;;;1.97;0.83;;;9.40;99.90;;;;;;5023698;28;20577;-90
2021/06/07 06:13:47;;;;;;;1.07;0.77;;;9.50;99.90;;;;;;5012928;28;20212;-91
2021/06/07 06:16:19;;;;;;;4.10;0.93;;;9.30;99.90;;;;;;5020623;28;20305;-91
2021/06/07 06:18:50;;;;;;;3.23;1.00;;;9.10;99.90;;;;;;5014617;28;20693;-92
2021/06/07 06:21:27;;;;;;;3.97;0.80;;;9.10;99.90;;;;;;5014947;28;20205;-92
2021/06/07 06:23:58;;;;;;;6.93;1.07;;;9.00;99.90;;;;;;5020410;28;20239;-91
2021/06/07 06:26:30;;;;;;;3.70;1.27;;;9.00;99.90;;;;;;5035791;28;20242;-92
2021/06/07 06:29:00;;;;;;;2.80;0.70;;;8.80;99.90;;;;;;5034269;28;20252;-92
2021/06/07 06:31:31;;;;;;;5.40;1.07;;;8.70;99.90;;;;;;5015137;28;20669;-91
2021/06/07 06:34:03;;;;;;;3.20;1.20;;;8.70;99.90;;;;;;5015647;28;20216;-91
2021/06/07 06:36:36;;;;;;;8.53;1.40;;;8.80;99.90;;;;;;5013772;28;20252;-92
2021/06/07 06:39:07;;;;;;;4.83;1.00;;;8.90;99.90;;;;;;5016617;28;20227;-92
2021/06/07 06:41:38;;;;;;;7.23;1.57;;;9.00;99.90;;;;;;5027886;28;20553;-92
2021/06/07 06:44:09;;;;;;;6.63;1.20;;;9.00;99.90;;;;;;5041434;28;20255;-91
2021/06/07 06:46:40;;;;;;;5.77;1.13;;;8.90;99.90;;;;;;5043007;28;20279;-92
2021/06/07 06:49:11;;;;;;;4.73;1.30;;;8.90;99.90;;;;;;5029132;28;20201;-92
2021/06/07 06:51:44;;;;;;;6.20;1.40;;;9.00;99.90;;;;;;5014231;28;20204;-92
2021/06/07 06:54:15;;;;;;;5.80;1.13;;;9.00;99.90;;;;;;5014782;28;20301;-91
2021/06/07 06:56:46;;;;;;;8.37;1.67;;;9.10;99.90;;;;;;5017420;28;20778;-91
2021/06/07 06:59:17;;;;;;;6.00;1.37;;;9.10;99.90;;;;;;5021626;28;20599;-91
2021/06/07 07:01:49;;;;;;;4.20;1.10;;;9.10;99.90;;;;;;5058343;28;20201;-91
2021/06/07 07:04:19;;;;;;;5.93;1.30;;;8.90;99.90;;;;;;5040172;28;20197;-92
2021/06/07 07:06:52;;;;;;;3.93;1.20;;;8.90;99.90;;;;;;5029005;28;20221;-91
2021/06/07 07:09:23;;;;;;;1.47;0.50;;;8.70;99.90;;;;;;5030808;28;20629;-92
2021/06/07 07:11:53;;;;;;;2.20;0.60;;;8.60;99.90;;;;;;5028093;28;20294;-92
2021/06/07 07:14:24;;;;;;;3.03;0.70;;;8.40;99.90;;;;;;5019467;28;20282;-92
2021/06/07 07:16:55;;;;;;;1.90;0.60;;;8.20;99.90;;;;;;5018077;28;20260;-92
2021/06/07 07:19:26;;;;;;;1.47;0.67;;;8.10;99.90;;;;;;5018591;28;20295;-92
2021/06/07 07:21:59;;;;;;;2.63;0.50;;;8.00;99.90;;;;;;5017546;28;20280;-92
2021/06/07 07:24:29;;;;;;;3.30;0.60;;;7.90;99.90;;;;;;5018809;28;20641;-92
2021/06/07 07:27:00;;;;;;;5.97;0.83;;;7.80;99.90;;;;;;5019267;28;20218;-92
2021/06/07 07:29:32;;;;;;;10.10;0.90;;;7.60;99.90;;;;;;5020295;28;20671;-92
2021/06/07 07:32:04;;;;;;;1.57;0.63;;;7.60;99.90;;;;;;5020002;28;20272;-92
2021/06/07 07:34:34;;;;;;;1.70;0.93;;;7.50;99.90;;;;;;5026814;28;20213;-92
2021/06/07 07:37:07;;;;;;;1.23;0.50;;;7.50;99.90;;;;;;5027040;28;20233;-92
2021/06/07 07:39:39;;;;;;;1.70;0.30;;;7.40;99.90;;;;;;5026315;28;20236;-93
2021/06/07 07:42:10;;;;;;;2.07;0.60;;;7.60;99.90;;;;;;5025865;28;20240;-91
2021/06/07 07:44:41;;;;;;;1.67;0.50;;;7.60;99.90;;;;;;5023276;28;20237;-92
2021/06/07 07:47:11;;;;;;;1.57;0.70;;;7.60;99.90;;;;;;5018512;28;20236;-91
2021/06/07 07:49:42;;;;;;;2.40;0.60;;;7.70;99.90;;;;;;5016858;28;20239;-93
2021/06/07 07:52:15;;;;;;;0.90;0.57;;;7.60;99.90;;;;;;5018623;28;20289;-91
2021/06/07 07:54:45;;;;;;;3.00;0.50;;;7.70;99.90;;;;;;5017865;28;20198;-92
2021/06/07 07:57:15;;;;;;;0.30;0.30;;;7.70;99.90;;;;;;5024619;28;20215;-92
2021/06/07 07:59:46;;;;;;;0.80;0.50;;;7.60;99.90;;;;;;5016897;28;20220;-92
2021/06/07 08:02:17;;;;;;;4.00;0.57;;;7.60;99.90;;;;;;5017390;28;20238;-92
2021/06/07 08:04:48;;;;;;;2.67;0.50;;;7.60;99.90;;;;;;5017539;28;20217;-92
2021/06/07 08:07:20;;;;;;;2.17;0.40;;;7.60;99.90;;;;;;5016290;28;20240;-92
2021/06/07 08:09:50;;;;;;;1.33;0.57;;;7.60;99.90;;;;;;5017375;28;20233;-92
2021/06/07 08:12:21;;;;;;;1.03;0.50;;;7.70;99.90;;;;;;5029657;28;20290;-92
2021/06/07 08:14:52;;;;;;;0.80;0.47;;;7.80;99.90;;;;;;5017722;28;20242;-92
2021/06/07 08:17:23;;;;;;;3.83;0.70;;;7.80;99.90;;;;;;5018055;28;20214;-92
2021/06/07 08:19:53;;;;;;;2.07;1.27;;;7.80;99.90;;;;;;5024943;28;20299;-91
2021/06/07 08:22:26;;;;;;;1.37;0.60;;;7.80;99.90;;;;;;5036991;28;20594;-91
2021/06/07 08:24:56;;;;;;;1.97;0.50;;;7.90;99.90;;;;;;5037205;28;20243;-92
2021/06/07 08:27:27;;;;;;;2.47;0.60;;;7.90;99.90;;;;;;5038724;28;20279;-91
2021/06/07 08:29:58;;;;;;;0.87;0.60;;;8.00;99.90;;;;;;5018746;28;20236;-91
2021/06/07 08:32:28;;;;;;;0.60;0.43;;;8.00;99.90;;;;;;5027762;28;20209;-91
2021/06/07 08:34:59;;;;;;;1.67;0.53;;;8.00;99.90;;;;;;5035459;28;20208;-91
2021/06/07 08:37:30;;;;;;;3.90;0.53;;;8.00;99.90;;;;;;5020498;28;20278;-92
2021/06/07 08:40:00;;;;;;;4.10;0.70;;;8.00;99.90;;;;;;5019248;28;20376;-92
2021/06/07 08:42:32;;;;;;;5.33;0.50;;;8.00;99.90;;;;;;5033435;28;20300;-92
2021/06/07 08:45:03;;;;;;;2.03;0.70;;;8.00;99.90;;;;;;5037398;28;20648;-92
2021/06/07 08:47:34;;;;;;;5.00;1.00;;;7.90;99.90;;;;;;5018452;28;20210;-91
2021/06/07 08:50:06;;;;;;;6.37;1.20;;;8.00;99.90;;;;;;5016493;28;20262;-92
2021/06/07 08:52:42;;;;;;;2.20;0.50;;;8.00;99.90;;;;;;5016754;28;20237;-92
2021/06/07 08:55:15;;;;;;;1.90;0.50;;;8.00;99.90;;;;;;5025659;28;20239;-92
2021/06/07 08:57:48;;;;;;;0.50;0.40;;;8.00;99.90;;;;;;5042976;28;20208;-91
2021/06/07 09:00:21;;;;;;;3.43;0.60;;;7.90;99.90;;;;;;5038995;28;20238;-92
2021/06/07 09:02:59;;;;;;;1.50;0.50;;;8.00;99.90;;;;;;5036478;28;20228;-92
2021/06/07 09:05:32;;;;;;;2.20;0.50;;;8.00;99.90;;;;;;4996035;28;20239;-91
2021/06/07 09:08:07;;;;;;;1.20;0.40;;;8.10;99.90;;;;;;4997186;28;20728;-92
2021/06/07 09:10:41;;;;;;;1.20;0.60;;;8.10;99.90;;;;;;4996401;28;20218;-93
2021/06/07 09:13:15;;;;;;;0.63;0.60;;;8.20;99.90;;;;;;5008177;28;20218;-91
2021/06/07 09:15:48;;;;;;;1.03;0.50;;;8.20;99.90;;;;;;5028830;28;20217;-92
2021/06/07 09:18:28;;;;;;;0.53;0.30;;;8.20;99.90;;;;;;5037020;28;20217;-92
2021/06/07 09:21:04;;;;;;;1.30;0.47;;;8.10;99.90;;;;;;5037759;28;20193;-91
2021/06/07 09:23:54;;;;;;;1.37;0.47;;;8.20;99.90;;;;;;5016856;28;20205;-91
2021/06/07 09:26:30;;;;;;;3.17;0.40;;;8.20;99.90;;;;;;5016540;28;20629;-91
2021/06/07 09:29:07;;;;;;;1.67;0.47;;;8.10;99.90;;;;;;5015984;28;21045;-91
2021/06/07 09:31:40;;;;;;;4.57;0.40;;;8.10;99.90;;;;;;5014857;28;20307;-92
2021/06/07 09:34:12;;;;;;;1.10;0.40;;;8.10;99.90;;;;;;5015940;28;20194;-91
2021/06/07 09:36:43;;;;;;;0.97;0.40;;;8.10;99.90;;;;;;5015573;28;20264;-91
2021/06/07 09:39:20;;;;;;;0.53;0.40;;;8.10;99.90;;;;;;5022592;28;20243;-91
2021/06/07 09:41:58;;;;;;;0.43;0.40;;;8.20;99.90;;;;;;5024659;28;20275;-91
2021/06/07 09:44:35;;;;;;;0.57;0.37;;;8.20;99.90;;;;;;5015613;28;20224;-91
2021/06/07 09:47:12;;;;;;;1.13;0.40;;;8.10;99.90;;;;;;5016232;28;20224;-92
2021/06/07 09:49:45;;;;;;;0.53;0.33;;;8.20;99.90;;;;;;4996128;28;20215;-92
2021/06/07 09:52:21;;;;;;;2.07;0.77;;;8.20;99.90;;;;;;5006636;28;20247;-91
2021/06/07 09:55:13;;;;;;;0.90;0.40;;;8.20;99.90;;;;;;5030186;28;20300;-92
2021/06/07 09:57:49;;;;;;;0.47;0.30;;;8.20;99.90;;;;;;5022641;28;20245;-91
2021/06/07 10:00:41;;;;;;;2.33;0.33;;;8.20;99.90;;;;;;5016467;28;20243;-91
2021/06/07 10:03:20;;;;;;;0.63;0.40;;;8.20;99.90;;;;;;5017427;28;20216;-91
2021/06/07 10:05:54;;;;;;;1.53;0.47;;;8.20;99.90;;;;;;5030221;28;20219;-92
2021/06/07 10:08:26;;;;;;;2.90;0.30;;;8.30;99.90;;;;;;5037001;28;20209;-91
2021/06/07 10:11:15;;;;;;;4.50;0.50;;;8.30;99.90;;;;;;5037953;28;20228;-93
2021/06/07 10:13:46;;;;;;;1.77;0.50;;;8.30;99.90;;;;;;5036463;28;20198;-92
2021/06/07 10:16:17;;;;;;;0.80;0.40;;;8.30;99.90;;;;;;5056367;28;20249;-92
2021/06/07 10:18:48;;;;;;;1.87;0.40;;;8.30;99.90;;;;;;5056495;28;20210;-92
2021/06/07 10:21:19;;;;;;;1.40;0.50;;;8.10;99.90;;;;;;5047966;28;20207;-91
2021/06/07 10:23:51;;;;;;;1.70;0.40;;;8.10;99.90;;;;;;5009287;28;20250;-91
2021/06/07 10:26:24;;;;;;;0.50;0.30;;;8.20;99.90;;;;;;5021362;28;20233;-92
2021/06/07 10:28:56;;;;;;;1.27;0.30;;;8.30;99.90;;;;;;5016382;28;20278;-91
2021/06/07 10:31:27;;;;;;;0.57;0.33;;;8.30;99.90;;;;;;5015488;28;20284;-92
2021/06/07 10:34:00;;;;;;;1.40;0.40;;;8.30;99.90;;;;;;4995581;28;20221;-91
2021/06/07 10:36:35;;;;;;;0.53;0.40;;;8.40;99.90;;;;;;4995287;28;20241;-92
2021/06/07 10:39:29;;;;;;;0.80;0.50;;;8.40;99.90;;;;;;4995733;28;20290;-92
2021/06/07 10:42:29;;;;;;;1.60;0.40;;;8.50;99.90;;;;;;5012867;28;20237;-91
2021/06/07 10:45:03;;;;;;;1.53;0.40;;;8.40;99.90;;;;;;5028204;28;20217;-91
2021/06/07 10:47:45;;;;;;;2.03;0.50;;;8.40;99.90;;;;;;5034406;28;20605;-92
2021/06/07 10:50:19;;;;;;;3.60;0.50;;;8.50;99.90;;;;;;5034450;28;20234;-92
2021/06/07 10:52:53;;;;;;;0.60;0.50;;;8.50;99.90;;;;;;5035132;28;20661;-91
2021/06/07 10:55:26;;;;;;;0.77;0.50;;;8.50;99.90;;;;;;5034277;28;20243;-92
2021/06/07 10:58:12;;;;;;;0.97;0.30;;;8.50;99.90;;;;;;5034400;28;20237;-91
2021/06/07 11:00:44;;;;;;;2.40;0.70;;;8.50;99.90;;;;;;5033853;28;20243;-92
2021/06/07 11:03:19;;;;;;;2.37;0.60;;;8.50;99.90;;;;;;5032625;28;20220;-91
2021/06/07 11:05:53;;;;;;;1.43;0.50;;;8.60;99.90;;;;;;5014477;28;20302;-91
2021/06/07 11:08:26;;;;;;;1.50;0.33;;;8.50;99.90;;;;;;5014828;28;20296;-92
2021/06/07 11:11:02;;;;;;;2.00;0.43;;;8.50;99.90;;;;;;5014511;28;20225;-92
2021/06/07 11:13:45;;;;;;;1.23;0.40;;;8.50;99.90;;;;;;5014381;28;20327;-91
2021/06/07 11:16:27;;;;;;;2.20;0.50;;;8.60;99.90;;;;;;5023154;28;20268;-92
2021/06/07 11:18:59;;;;;;;1.60;0.30;;;8.60;99.90;;;;;;5044124;28;20215;-91
2021/06/07 11:21:32;;;;;;;1.53;0.50;;;8.70;99.90;;;;;;5034027;28;20205;-91
2021/06/07 11:24:24;;;;;;;1.27;0.70;;;8.70;99.90;;;;;;5013952;28;20205;-92
2021/06/07 11:26:57;;;;;;;1.57;0.40;;;8.60;99.90;;;;;;5014992;28;20271;-91
2021/06/07 11:29:29;;;;;;;3.07;0.60;;;8.50;99.90;;;;;;5025089;28;20256;-91
2021/06/07 11:32:12;;;;;;;1.07;0.50;;;8.50;99.90;;;;;;5035021;28;20185;-91
2021/06/07 11:34:46;;;;;;;2.07;0.50;;;8.40;99.90;;;;;;5043263;28;20205;-92
2021/06/07 11:37:32;;;;;;;1.03;0.40;;;8.30;99.90;;;;;;5034991;28;20629;-92
2021/06/07 11:40:05;;;;;;;2.07;0.80;;;8.30;99.90;;;;;;5033194;28;20234;-92
2021/06/07 11:42:53;;;;;;;3.30;0.53;;;8.20;99.90;;;;;;5032204;28;20285;-91
2021/06/07 11:45:41;;;;;;;3.47;0.60;;;8.20;99.90;;;;;;5017158;28;20265;-91
2021/06/07 11:48:11;;;;;;;1.47;0.73;;;8.20;99.90;;;;;;5017054;28;20220;-91
2021/06/07 11:50:41;;;;;;;2.83;0.63;;;8.20;99.90;;;;;;5016393;28;20272;-92
2021/06/07 11:53:15;;;;;;;1.00;0.60;;;8.20;99.90;;;;;;5016432;28;20308;-91
2021/06/07 11:55:47;;;;;;;1.43;0.60;;;8.20;99.90;;;;;;5017363;28;20229;-92
2021/06/07 11:58:22;;;;;;;1.80;0.50;;;8.20;99.90;;;;;;5018384;28;20670;-91
2021/06/07 12:00:59;;;;;;;0.73;0.50;;;8.20;99.90;;;;;;5016226;28;20211;-92
2021/06/07 12:03:30;;;;;;;2.00;0.63;;;8.20;99.90;;;;;;5017016;28;20210;-91
2021/06/07 12:06:01;;;;;;;2.17;0.70;;;8.20;99.90;;;;;;5030593;28;20205;-91
2021/06/07 12:08:32;;;;;;;4.03;0.73;;;8.20;99.90;;;;;;5041908;28;20213;-91
2021/06/07 12:11:04;;;;;;;2.90;0.60;;;8.20;99.90;;;;;;5022973;28;20222;-91
2021/06/07 12:13:36;;;;;;;2.13;0.70;;;8.20;99.90;;;;;;5036900;28;20236;-91
2021/06/07 12:16:11;;;;;;;2.07;0.70;;;8.20;99.90;;;;;;5036919;28;20205;-92
2021/06/07 12:18:45;;;;;;;1.23;0.63;;;8.10;99.90;;;;;;5037091;28;20440;-91
2021/06/07 12:21:17;;;;;;;1.37;0.70;;;8.10;99.90;;;;;;5036167;28;20232;-92
2021/06/07 12:23:53;;;;;;;0.73;0.60;;;8.10;99.90;;;;;;5036073;28;20216;-91
2021/06/07 12:29:36;;;;;;;1.60;0.60;;;8.20;99.90;;;;;;4997321;28;20926;-92
2021/06/07 12:32:13;;;;;;;3.77;0.90;;;8.20;99.90;;;;;;4994450;28;20585;-91
2021/06/07 12:35:15;;;;;;;3.47;1.13;;;8.20;99.90;;;;;;4997109;28;20214;-91
2021/06/07 12:37:49;;;;;;;2.43;0.97;;;8.20;99.90;;;;;;4986558;28;20696;-91
2021/06/07 12:40:26;;;;;;;4.27;0.80;;;8.30;99.90;;;;;;4996229;28;20289;-91
2021/06/07 12:42:59;;;;;;;0.93;0.47;;;8.20;99.90;;;;;;5014652;28;20227;-91
2021/06/07 12:45:32;;;;;;;1.57;0.70;;;8.20;99.90;;;;;;5027354;28;20321;-91
2021/06/07 12:48:22;;;;;;;1.93;1.00;;;8.20;99.90;;;;;;5034587;28;20274;-91
2021/06/07 12:50:54;;;;;;;2.20;0.73;;;8.20;99.90;;;;;;5036280;28;20297;-90
2021/06/07 12:53:27;;;;;;;2.20;0.77;;;8.30;99.90;;;;;;5020150;28;20297;-90
2021/06/07 12:56:02;;;;;;;2.10;0.70;;;8.20;99.90;;;;;;5005402;28;20218;-89
2021/06/07 12:58:33;;;;;;;2.23;0.90;;;8.30;99.90;;;;;;4996490;28;20238;-90
2021/06/07 13:01:08;;;;;;;3.60;1.40;;;8.30;99.90;;;;;;4995613;28;20615;-90
2021/06/07 13:03:51;;;;;;;2.70;1.20;;;8.20;99.90;;;;;;5025458;28;20584;-90
2021/06/07 13:06:22;;;;;;;2.00;1.23;;;8.20;99.90;;;;;;5036001;28;20290;-90
2021/06/07 13:08:58;;;;;;;1.97;1.30;;;8.20;99.90;;;;;;5035164;28;20278;-90
2021/06/07 13:11:39;;;;;;;3.43;1.20;;;8.20;99.90;;;;;;5029103;28;20237;-90
2021/06/07 13:14:22;;;;;;;3.47;1.47;;;8.10;99.90;;;;;;5016642;28;20309;-90
2021/06/07 13:16:56;;;;;;;19.73;10.47;;;8.10;99.90;;;;;;5016141;28;20325;-90
2021/06/07 13:19:30;;;;;;;12.20;6.47;;;8.10;99.90;;;;;;5016235;28;20208;-90
2021/06/07 13:22:01;;;;;;;4.50;2.60;;;8.20;99.90;;;;;;4995456;28;20214;-90
2021/06/07 13:24:36;;;;;;;3.20;1.70;;;8.20;99.90;;;;;;4996399;28;20218;-90
2021/06/07 13:27:08;;;;;;;8.50;3.03;;;8.10;99.90;;;;;;4995982;28;20296;-91
2021/06/07 13:29:40;;;;;;;4.43;1.77;;;8.20;99.90;;;;;;5007074;28;20237;-92
2021/06/07 13:32:13;;;;;;;5.43;1.70;;;8.20;99.90;;;;;;5015798;28;20288;-91
2021/06/07 13:34:51;;;;;;;2.40;0.80;;;8.20;99.90;;;;;;5015133;28;20603;-91
2021/06/07 13:37:30;;;;;;;4.47;1.17;;;8.00;99.90;;;;;;5016170;28;20263;-92
2021/06/07 13:40:11;;;;;;;1.33;0.77;;;7.80;99.90;;;;;;5014479;28;20240;-93
2021/06/07 13:42:50;;;;;;;3.70;1.00;;;7.70;99.90;;;;;;5019095;28;20283;-91
2021/06/07 13:45:34;;;;;;;2.20;1.00;;;7.60;99.90;;;;;;5034362;28;20237;-92
2021/06/07 13:48:06;;;;;;;2.50;0.93;;;7.60;99.90;;;;;;5036602;28;20208;-90
2021/06/07 13:50:51;;;;;;;1.83;0.93;;;7.60;99.90;;;;;;5024623;28;20220;-90